sensor_id;sensor_type;location;lat;lon;timestamp;P1;durP1;ratioP1;P2;durP2;ratioP2
32216;SDS011;18709;51.140;4.088;2022-08-19T00:01:17;37.45;;;24.83;;
32216;SDS011;18709;51.140;4.088;2022-08-19T00:03:43;35.03;;;25.42;;
32216;SDS011;18709;51.140;4.088;2022-08-19T00:06:09;35.58;;;25.80;;
32216;SDS011;18709;51.140;4.088;2022-08-19T00:08:35;32.50;;;24.17;;
32216;SDS011;18709;51.140;4.088;2022-08-19T00:11:01;35.90;;;25.40;;
32216;SDS011;18709;51.140;4.088;2022-08-19T00:13:27;31.90;;;23.83;;
32216;SDS011;18709;51.140;4.088;2022-08-19T00:15:53;33.50;;;24.75;;
32216;SDS011;18709;51.140;4.088;2022-08-19T00:18:20;34.88;;;25.67;;
32216;SDS011;18709;51.140;4.088;2022-08-19T00:20:46;38.88;;;27.27;;
32216;SDS011;18709;51.140;4.088;2022-08-19T00:23:12;37.47;;;27.17;;
32216;SDS011;18709;51.140;4.088;2022-08-19T00:25:37;38.88;;;27.60;;
32216;SDS011;18709;51.140;4.088;2022-08-19T00:28:04;39.08;;;27.83;;
32216;SDS011;18709;51.140;4.088;2022-08-19T00:30:29;42.47;;;28.95;;
32216;SDS011;18709;51.140;4.088;2022-08-19T00:32:55;43.33;;;30.80;;
32216;SDS011;18709;51.140;4.088;2022-08-19T00:35:22;46.97;;;32.05;;
32216;SDS011;18709;51.140;4.088;2022-08-19T00:37:48;53.80;;;35.22;;
32216;SDS011;18709;51.140;4.088;2022-08-19T00:40:15;55.65;;;35.17;;
32216;SDS011;18709;51.140;4.088;2022-08-19T00:42:42;55.40;;;36.10;;
32216;SDS011;18709;51.140;4.088;2022-08-19T00:45:14;55.03;;;33.75;;
32216;SDS011;18709;51.140;4.088;2022-08-19T00:47:43;52.42;;;34.00;;
32216;SDS011;18709;51.140;4.088;2022-08-19T00:50:10;52.67;;;32.65;;
32216;SDS011;18709;51.140;4.088;2022-08-19T00:52:44;42.38;;;30.25;;
32216;SDS011;18709;51.140;4.088;2022-08-19T00:55:21;47.65;;;31.48;;
32216;SDS011;18709;51.140;4.088;2022-08-19T00:57:56;47.72;;;29.77;;
32216;SDS011;18709;51.140;4.088;2022-08-19T01:00:28;49.72;;;29.83;;
32216;SDS011;18709;51.140;4.088;2022-08-19T01:02:55;45.20;;;28.65;;
32216;SDS011;18709;51.140;4.088;2022-08-19T01:05:25;43.53;;;29.48;;
32216;SDS011;18709;51.140;4.088;2022-08-19T01:07:54;49.40;;;30.48;;
32216;SDS011;18709;51.140;4.088;2022-08-19T01:10:23;47.38;;;29.83;;
32216;SDS011;18709;51.140;4.088;2022-08-19T01:12:53;43.88;;;27.95;;
32216;SDS011;18709;51.140;4.088;2022-08-19T01:15:23;48.13;;;30.25;;
32216;SDS011;18709;51.140;4.088;2022-08-19T01:17:54;45.05;;;29.50;;
32216;SDS011;18709;51.140;4.088;2022-08-19T01:20:22;43.17;;;27.98;;
32216;SDS011;18709;51.140;4.088;2022-08-19T01:22:55;41.70;;;27.80;;
32216;SDS011;18709;51.140;4.088;2022-08-19T01:25:28;48.72;;;30.20;;
32216;SDS011;18709;51.140;4.088;2022-08-19T01:27:57;48.08;;;29.52;;
32216;SDS011;18709;51.140;4.088;2022-08-19T01:30:28;44.28;;;29.40;;
32216;SDS011;18709;51.140;4.088;2022-08-19T01:32:56;50.88;;;30.40;;
32216;SDS011;18709;51.140;4.088;2022-08-19T01:35:24;45.33;;;28.42;;
32216;SDS011;18709;51.140;4.088;2022-08-19T01:37:56;44.90;;;29.63;;
32216;SDS011;18709;51.140;4.088;2022-08-19T01:40:29;45.72;;;28.17;;
32216;SDS011;18709;51.140;4.088;2022-08-19T01:42:56;42.38;;;27.13;;
32216;SDS011;18709;51.140;4.088;2022-08-19T01:45:24;44.35;;;28.33;;
32216;SDS011;18709;51.140;4.088;2022-08-19T01:47:51;50.85;;;29.85;;
32216;SDS011;18709;51.140;4.088;2022-08-19T01:50:17;50.83;;;31.27;;
32216;SDS011;18709;51.140;4.088;2022-08-19T01:52:43;48.75;;;30.13;;
32216;SDS011;18709;51.140;4.088;2022-08-19T01:55:12;45.38;;;30.48;;
32216;SDS011;18709;51.140;4.088;2022-08-19T01:57:41;45.72;;;29.52;;
32216;SDS011;18709;51.140;4.088;2022-08-19T02:00:11;46.78;;;29.55;;
32216;SDS011;18709;51.140;4.088;2022-08-19T02:02:40;44.15;;;28.52;;
32216;SDS011;18709;51.140;4.088;2022-08-19T02:05:06;50.10;;;30.98;;
32216;SDS011;18709;51.140;4.088;2022-08-19T02:07:33;47.95;;;30.52;;
32216;SDS011;18709;51.140;4.088;2022-08-19T02:10:03;54.90;;;31.42;;
32216;SDS011;18709;51.140;4.088;2022-08-19T02:12:34;48.83;;;30.98;;
32216;SDS011;18709;51.140;4.088;2022-08-19T02:15:00;53.22;;;32.00;;
32216;SDS011;18709;51.140;4.088;2022-08-19T02:17:27;50.88;;;31.95;;
32216;SDS011;18709;51.140;4.088;2022-08-19T02:19:54;51.25;;;30.52;;
32216;SDS011;18709;51.140;4.088;2022-08-19T02:22:20;54.50;;;31.08;;
32216;SDS011;18709;51.140;4.088;2022-08-19T02:24:46;48.00;;;29.77;;
32216;SDS011;18709;51.140;4.088;2022-08-19T02:27:13;50.45;;;30.35;;
32216;SDS011;18709;51.140;4.088;2022-08-19T02:29:39;48.05;;;29.90;;
32216;SDS011;18709;51.140;4.088;2022-08-19T02:32:05;50.90;;;28.58;;
32216;SDS011;18709;51.140;4.088;2022-08-19T02:34:32;49.55;;;30.25;;
32216;SDS011;18709;51.140;4.088;2022-08-19T02:36:59;50.58;;;29.73;;
32216;SDS011;18709;51.140;4.088;2022-08-19T02:39:25;45.72;;;29.10;;
32216;SDS011;18709;51.140;4.088;2022-08-19T02:41:51;48.58;;;28.25;;
32216;SDS011;18709;51.140;4.088;2022-08-19T02:44:17;47.65;;;28.05;;
32216;SDS011;18709;51.140;4.088;2022-08-19T02:46:44;47.67;;;28.52;;
32216;SDS011;18709;51.140;4.088;2022-08-19T02:49:12;48.40;;;28.30;;
32216;SDS011;18709;51.140;4.088;2022-08-19T02:51:41;45.53;;;28.40;;
32216;SDS011;18709;51.140;4.088;2022-08-19T02:54:09;49.58;;;28.08;;
32216;SDS011;18709;51.140;4.088;2022-08-19T02:56:38;43.60;;;24.98;;
32216;SDS011;18709;51.140;4.088;2022-08-19T02:59:05;43.15;;;26.20;;
32216;SDS011;18709;51.140;4.088;2022-08-19T03:01:33;43.83;;;25.27;;
32216;SDS011;18709;51.140;4.088;2022-08-19T03:04:00;48.63;;;26.45;;
32216;SDS011;18709;51.140;4.088;2022-08-19T03:06:28;38.00;;;24.25;;
32216;SDS011;18709;51.140;4.088;2022-08-19T03:08:54;47.85;;;25.73;;
32216;SDS011;18709;51.140;4.088;2022-08-19T03:11:21;42.75;;;24.70;;
32216;SDS011;18709;51.140;4.088;2022-08-19T03:13:49;37.90;;;24.13;;
32216;SDS011;18709;51.140;4.088;2022-08-19T03:16:15;42.70;;;24.08;;
32216;SDS011;18709;51.140;4.088;2022-08-19T03:18:56;39.90;;;23.48;;
32216;SDS011;18709;51.140;4.088;2022-08-19T03:21:25;38.60;;;23.35;;
32216;SDS011;18709;51.140;4.088;2022-08-19T03:23:56;45.33;;;24.38;;
32216;SDS011;18709;51.140;4.088;2022-08-19T03:26:23;42.47;;;23.60;;
32216;SDS011;18709;51.140;4.088;2022-08-19T03:28:49;38.92;;;22.63;;
32216;SDS011;18709;51.140;4.088;2022-08-19T03:31:15;37.58;;;22.85;;
32216;SDS011;18709;51.140;4.088;2022-08-19T03:33:43;38.58;;;22.10;;
32216;SDS011;18709;51.140;4.088;2022-08-19T03:36:11;39.55;;;23.77;;
32216;SDS011;18709;51.140;4.088;2022-08-19T03:38:42;39.88;;;23.60;;
32216;SDS011;18709;51.140;4.088;2022-08-19T03:41:14;39.35;;;23.65;;
32216;SDS011;18709;51.140;4.088;2022-08-19T03:43:42;38.88;;;23.23;;
32216;SDS011;18709;51.140;4.088;2022-08-19T03:46:12;36.92;;;22.23;;
32216;SDS011;18709;51.140;4.088;2022-08-19T03:48:40;39.63;;;21.85;;
32216;SDS011;18709;51.140;4.088;2022-08-19T03:51:07;36.47;;;21.63;;
32216;SDS011;18709;51.140;4.088;2022-08-19T03:53:45;40.67;;;22.77;;
32216;SDS011;18709;51.140;4.088;2022-08-19T03:56:11;40.10;;;21.80;;
32216;SDS011;18709;51.140;4.088;2022-08-19T03:58:38;33.80;;;20.75;;
32216;SDS011;18709;51.140;4.088;2022-08-19T04:01:10;37.47;;;21.75;;
32216;SDS011;18709;51.140;4.088;2022-08-19T04:03:37;35.40;;;20.77;;
32216;SDS011;18709;51.140;4.088;2022-08-19T04:06:14;37.13;;;21.73;;
32216;SDS011;18709;51.140;4.088;2022-08-19T04:08:42;35.78;;;20.00;;
32216;SDS011;18709;51.140;4.088;2022-08-19T04:11:10;32.85;;;19.13;;
32216;SDS011;18709;51.140;4.088;2022-08-19T04:13:37;39.92;;;19.67;;
32216;SDS011;18709;51.140;4.088;2022-08-19T04:16:03;36.10;;;20.25;;
32216;SDS011;18709;51.140;4.088;2022-08-19T04:18:30;35.00;;;19.95;;
32216;SDS011;18709;51.140;4.088;2022-08-19T04:20:57;35.15;;;18.52;;
32216;SDS011;18709;51.140;4.088;2022-08-19T04:23:23;34.10;;;18.10;;
32216;SDS011;18709;51.140;4.088;2022-08-19T04:25:49;35.45;;;18.65;;
32216;SDS011;18709;51.140;4.088;2022-08-19T04:28:15;29.98;;;17.83;;
32216;SDS011;18709;51.140;4.088;2022-08-19T04:30:45;30.27;;;16.90;;
32216;SDS011;18709;51.140;4.088;2022-08-19T04:33:17;36.00;;;17.33;;
32216;SDS011;18709;51.140;4.088;2022-08-19T04:35:46;32.25;;;18.25;;
32216;SDS011;18709;51.140;4.088;2022-08-19T04:38:14;30.50;;;17.38;;
32216;SDS011;18709;51.140;4.088;2022-08-19T04:40:46;28.33;;;17.15;;
32216;SDS011;18709;51.140;4.088;2022-08-19T04:43:31;29.65;;;16.42;;
32216;SDS011;18709;51.140;4.088;2022-08-19T04:45:58;29.23;;;16.55;;
32216;SDS011;18709;51.140;4.088;2022-08-19T04:48:28;38.22;;;17.08;;
32216;SDS011;18709;51.140;4.088;2022-08-19T04:50:55;31.23;;;16.50;;
32216;SDS011;18709;51.140;4.088;2022-08-19T04:53:29;30.27;;;15.55;;
32216;SDS011;18709;51.140;4.088;2022-08-19T04:55:57;29.77;;;15.88;;
32216;SDS011;18709;51.140;4.088;2022-08-19T04:58:25;30.83;;;16.52;;
32216;SDS011;18709;51.140;4.088;2022-08-19T05:00:52;27.40;;;15.05;;
32216;SDS011;18709;51.140;4.088;2022-08-19T05:03:18;32.88;;;15.77;;
32216;SDS011;18709;51.140;4.088;2022-08-19T05:05:45;27.98;;;15.38;;
32216;SDS011;18709;51.140;4.088;2022-08-19T05:08:16;25.55;;;14.52;;
32216;SDS011;18709;51.140;4.088;2022-08-19T05:10:47;28.55;;;15.60;;
32216;SDS011;18709;51.140;4.088;2022-08-19T05:13:15;25.20;;;13.50;;
32216;SDS011;18709;51.140;4.088;2022-08-19T05:15:42;26.42;;;14.30;;
32216;SDS011;18709;51.140;4.088;2022-08-19T05:18:08;26.73;;;14.07;;
32216;SDS011;18709;51.140;4.088;2022-08-19T05:20:53;26.27;;;14.90;;
32216;SDS011;18709;51.140;4.088;2022-08-19T05:23:37;22.15;;;13.38;;
32216;SDS011;18709;51.140;4.088;2022-08-19T05:26:03;25.13;;;14.32;;
32216;SDS011;18709;51.140;4.088;2022-08-19T05:28:30;28.40;;;13.85;;
32216;SDS011;18709;51.140;4.088;2022-08-19T05:30:55;25.52;;;13.43;;
32216;SDS011;18709;51.140;4.088;2022-08-19T05:33:21;31.15;;;14.88;;
32216;SDS011;18709;51.140;4.088;2022-08-19T05:35:48;24.33;;;14.43;;
32216;SDS011;18709;51.140;4.088;2022-08-19T05:38:14;22.45;;;13.32;;
32216;SDS011;18709;51.140;4.088;2022-08-19T05:40:44;22.08;;;13.25;;
32216;SDS011;18709;51.140;4.088;2022-08-19T05:43:13;22.27;;;12.75;;
32216;SDS011;18709;51.140;4.088;2022-08-19T05:45:42;20.83;;;11.60;;
32216;SDS011;18709;51.140;4.088;2022-08-19T05:48:11;25.92;;;13.55;;
32216;SDS011;18709;51.140;4.088;2022-08-19T05:50:39;23.25;;;13.20;;
32216;SDS011;18709;51.140;4.088;2022-08-19T05:53:06;25.40;;;13.63;;
32216;SDS011;18709;51.140;4.088;2022-08-19T05:55:33;20.83;;;11.80;;
32216;SDS011;18709;51.140;4.088;2022-08-19T05:58:00;27.67;;;11.73;;
32216;SDS011;18709;51.140;4.088;2022-08-19T06:00:27;24.55;;;12.88;;
32216;SDS011;18709;51.140;4.088;2022-08-19T06:02:54;23.08;;;12.20;;
32216;SDS011;18709;51.140;4.088;2022-08-19T06:05:21;26.00;;;12.30;;
32216;SDS011;18709;51.140;4.088;2022-08-19T06:07:47;23.50;;;12.90;;
32216;SDS011;18709;51.140;4.088;2022-08-19T06:10:13;24.90;;;12.18;;
32216;SDS011;18709;51.140;4.088;2022-08-19T06:12:39;25.67;;;12.25;;
32216;SDS011;18709;51.140;4.088;2022-08-19T06:15:06;23.02;;;12.80;;
32216;SDS011;18709;51.140;4.088;2022-08-19T06:17:34;18.13;;;11.57;;
32216;SDS011;18709;51.140;4.088;2022-08-19T06:20:01;29.10;;;12.60;;
32216;SDS011;18709;51.140;4.088;2022-08-19T06:22:31;24.55;;;12.73;;
32216;SDS011;18709;51.140;4.088;2022-08-19T06:27:28;24.00;;;11.60;;
32216;SDS011;18709;51.140;4.088;2022-08-19T06:29:56;23.25;;;12.23;;
32216;SDS011;18709;51.140;4.088;2022-08-19T06:32:21;20.42;;;10.70;;
32216;SDS011;18709;51.140;4.088;2022-08-19T06:34:47;24.10;;;12.23;;
32216;SDS011;18709;51.140;4.088;2022-08-19T06:37:13;27.60;;;10.77;;
32216;SDS011;18709;51.140;4.088;2022-08-19T06:39:43;22.73;;;10.35;;
32216;SDS011;18709;51.140;4.088;2022-08-19T06:42:10;20.85;;;11.60;;
32216;SDS011;18709;51.140;4.088;2022-08-19T06:44:41;23.42;;;11.77;;
32216;SDS011;18709;51.140;4.088;2022-08-19T06:47:11;22.67;;;11.60;;
32216;SDS011;18709;51.140;4.088;2022-08-19T06:49:38;23.57;;;10.23;;
32216;SDS011;18709;51.140;4.088;2022-08-19T06:52:05;20.92;;;10.35;;
32216;SDS011;18709;51.140;4.088;2022-08-19T06:54:31;22.98;;;11.60;;
32216;SDS011;18709;51.140;4.088;2022-08-19T06:56:57;23.30;;;12.60;;
32216;SDS011;18709;51.140;4.088;2022-08-19T06:59:27;27.05;;;10.52;;
32216;SDS011;18709;51.140;4.088;2022-08-19T07:01:56;17.40;;;9.93;;
32216;SDS011;18709;51.140;4.088;2022-08-19T07:04:23;22.23;;;11.15;;
32216;SDS011;18709;51.140;4.088;2022-08-19T07:07:04;16.88;;;10.45;;
32216;SDS011;18709;51.140;4.088;2022-08-19T07:09:34;24.67;;;12.50;;
32216;SDS011;18709;51.140;4.088;2022-08-19T07:12:02;28.20;;;11.82;;
32216;SDS011;18709;51.140;4.088;2022-08-19T07:14:31;21.42;;;11.70;;
32216;SDS011;18709;51.140;4.088;2022-08-19T07:17:03;22.30;;;11.07;;
32216;SDS011;18709;51.140;4.088;2022-08-19T07:19:33;21.98;;;11.23;;
32216;SDS011;18709;51.140;4.088;2022-08-19T07:22:01;19.15;;;10.40;;
32216;SDS011;18709;51.140;4.088;2022-08-19T07:24:28;25.00;;;12.05;;
32216;SDS011;18709;51.140;4.088;2022-08-19T07:26:55;22.17;;;10.48;;
32216;SDS011;18709;51.140;4.088;2022-08-19T07:29:25;22.83;;;11.60;;
32216;SDS011;18709;51.140;4.088;2022-08-19T07:31:52;19.95;;;11.18;;
32216;SDS011;18709;51.140;4.088;2022-08-19T07:34:27;16.67;;;10.07;;
32216;SDS011;18709;51.140;4.088;2022-08-19T07:36:58;21.98;;;11.63;;
32216;SDS011;18709;51.140;4.088;2022-08-19T07:39:29;19.02;;;10.70;;
32216;SDS011;18709;51.140;4.088;2022-08-19T07:41:56;17.92;;;10.73;;
32216;SDS011;18709;51.140;4.088;2022-08-19T07:44:23;16.00;;;9.57;;
32216;SDS011;18709;51.140;4.088;2022-08-19T07:46:50;21.63;;;10.13;;
32216;SDS011;18709;51.140;4.088;2022-08-19T07:49:19;16.85;;;10.07;;
32216;SDS011;18709;51.140;4.088;2022-08-19T07:51:49;16.23;;;9.98;;
32216;SDS011;18709;51.140;4.088;2022-08-19T07:54:18;15.90;;;10.15;;
32216;SDS011;18709;51.140;4.088;2022-08-19T07:56:45;18.52;;;10.73;;
32216;SDS011;18709;51.140;4.088;2022-08-19T07:59:11;16.33;;;9.68;;
32216;SDS011;18709;51.140;4.088;2022-08-19T08:01:37;22.02;;;10.70;;
32216;SDS011;18709;51.140;4.088;2022-08-19T08:04:05;22.05;;;10.57;;
32216;SDS011;18709;51.140;4.088;2022-08-19T08:06:50;19.42;;;9.63;;
32216;SDS011;18709;51.140;4.088;2022-08-19T08:09:36;14.70;;;9.43;;
32216;SDS011;18709;51.140;4.088;2022-08-19T08:12:05;16.92;;;9.38;;
32216;SDS011;18709;51.140;4.088;2022-08-19T08:14:37;19.17;;;9.40;;
32216;SDS011;18709;51.140;4.088;2022-08-19T08:17:07;16.73;;;9.18;;
32216;SDS011;18709;51.140;4.088;2022-08-19T08:19:34;18.38;;;9.55;;
32216;SDS011;18709;51.140;4.088;2022-08-19T08:22:00;20.13;;;9.77;;
32216;SDS011;18709;51.140;4.088;2022-08-19T08:24:28;15.27;;;8.77;;
32216;SDS011;18709;51.140;4.088;2022-08-19T08:26:59;18.27;;;9.95;;
32216;SDS011;18709;51.140;4.088;2022-08-19T08:29:30;17.52;;;10.98;;
32216;SDS011;18709;51.140;4.088;2022-08-19T08:31:56;18.60;;;10.20;;
32216;SDS011;18709;51.140;4.088;2022-08-19T08:34:22;16.42;;;9.43;;
32216;SDS011;18709;51.140;4.088;2022-08-19T08:36:48;21.98;;;11.23;;
32216;SDS011;18709;51.140;4.088;2022-08-19T08:39:17;20.63;;;10.43;;
32216;SDS011;18709;51.140;4.088;2022-08-19T08:44:17;20.02;;;9.77;;
32216;SDS011;18709;51.140;4.088;2022-08-19T08:46:49;21.83;;;12.23;;
32216;SDS011;18709;51.140;4.088;2022-08-19T08:51:57;20.33;;;11.65;;
32216;SDS011;18709;51.140;4.088;2022-08-19T08:54:30;22.52;;;11.98;;
32216;SDS011;18709;51.140;4.088;2022-08-19T08:56:59;22.30;;;12.07;;
32216;SDS011;18709;51.140;4.088;2022-08-19T08:59:27;24.38;;;11.15;;
32216;SDS011;18709;51.140;4.088;2022-08-19T09:01:57;16.98;;;10.27;;
32216;SDS011;18709;51.140;4.088;2022-08-19T09:04:23;16.13;;;10.20;;
32216;SDS011;18709;51.140;4.088;2022-08-19T09:09:32;21.42;;;9.20;;
32216;SDS011;18709;51.140;4.088;2022-08-19T09:17:12;19.85;;;10.43;;
32216;SDS011;18709;51.140;4.088;2022-08-19T09:22:46;22.55;;;9.40;;
32216;SDS011;18709;51.140;4.088;2022-08-19T09:25:15;19.20;;;9.30;;
32216;SDS011;18709;51.140;4.088;2022-08-19T09:27:46;21.40;;;8.98;;
32216;SDS011;18709;51.140;4.088;2022-08-19T09:30:17;18.73;;;9.05;;
32216;SDS011;18709;51.140;4.088;2022-08-19T09:32:49;18.30;;;9.23;;
32216;SDS011;18709;51.140;4.088;2022-08-19T09:35:18;20.30;;;9.77;;
32216;SDS011;18709;51.140;4.088;2022-08-19T09:37:54;22.00;;;10.80;;
32216;SDS011;18709;51.140;4.088;2022-08-19T09:40:28;18.30;;;9.38;;
32216;SDS011;18709;51.140;4.088;2022-08-19T09:42:54;21.27;;;10.20;;
32216;SDS011;18709;51.140;4.088;2022-08-19T09:45:22;23.23;;;10.02;;
32216;SDS011;18709;51.140;4.088;2022-08-19T09:47:51;22.45;;;10.82;;
32216;SDS011;18709;51.140;4.088;2022-08-19T09:50:17;20.57;;;10.23;;
32216;SDS011;18709;51.140;4.088;2022-08-19T09:52:43;17.90;;;9.68;;
32216;SDS011;18709;51.140;4.088;2022-08-19T09:55:10;17.65;;;9.68;;
32216;SDS011;18709;51.140;4.088;2022-08-19T09:57:36;19.00;;;9.38;;
32216;SDS011;18709;51.140;4.088;2022-08-19T10:00:03;16.63;;;8.98;;
32216;SDS011;18709;51.140;4.088;2022-08-19T10:02:31;18.90;;;9.95;;
32216;SDS011;18709;51.140;4.088;2022-08-19T10:04:57;20.55;;;10.13;;
32216;SDS011;18709;51.140;4.088;2022-08-19T10:07:41;17.90;;;9.27;;
32216;SDS011;18709;51.140;4.088;2022-08-19T10:10:07;16.13;;;7.88;;
32216;SDS011;18709;51.140;4.088;2022-08-19T10:12:34;16.55;;;9.80;;
32216;SDS011;18709;51.140;4.088;2022-08-19T10:15:01;14.55;;;8.25;;
32216;SDS011;18709;51.140;4.088;2022-08-19T10:17:28;15.60;;;8.77;;
32216;SDS011;18709;51.140;4.088;2022-08-19T10:19:54;15.73;;;8.52;;
32216;SDS011;18709;51.140;4.088;2022-08-19T10:22:20;14.73;;;8.93;;
32216;SDS011;18709;51.140;4.088;2022-08-19T10:24:46;13.70;;;8.20;;
32216;SDS011;18709;51.140;4.088;2022-08-19T10:27:12;14.32;;;8.00;;
32216;SDS011;18709;51.140;4.088;2022-08-19T10:29:39;14.98;;;8.57;;
32216;SDS011;18709;51.140;4.088;2022-08-19T10:32:06;12.65;;;8.45;;
32216;SDS011;18709;51.140;4.088;2022-08-19T10:34:33;12.60;;;8.13;;
32216;SDS011;18709;51.140;4.088;2022-08-19T10:37:01;13.00;;;8.00;;
32216;SDS011;18709;51.140;4.088;2022-08-19T10:39:32;8.77;;;6.70;;
32216;SDS011;18709;51.140;4.088;2022-08-19T10:41:59;12.05;;;7.80;;
32216;SDS011;18709;51.140;4.088;2022-08-19T10:44:29;9.37;;;6.37;;
32216;SDS011;18709;51.140;4.088;2022-08-19T10:46:55;12.68;;;6.60;;
32216;SDS011;18709;51.140;4.088;2022-08-19T10:49:20;8.38;;;5.57;;
32216;SDS011;18709;51.140;4.088;2022-08-19T10:51:47;11.50;;;6.75;;
32216;SDS011;18709;51.140;4.088;2022-08-19T10:54:32;10.05;;;5.63;;
32216;SDS011;18709;51.140;4.088;2022-08-19T10:57:17;9.32;;;6.00;;
32216;SDS011;18709;51.140;4.088;2022-08-19T10:59:42;10.55;;;6.18;;
32216;SDS011;18709;51.140;4.088;2022-08-19T11:02:09;6.90;;;5.32;;
32216;SDS011;18709;51.140;4.088;2022-08-19T11:04:37;12.95;;;5.05;;
32216;SDS011;18709;51.140;4.088;2022-08-19T11:07:04;9.52;;;4.47;;
32216;SDS011;18709;51.140;4.088;2022-08-19T11:09:31;7.70;;;4.88;;
32216;SDS011;18709;51.140;4.088;2022-08-19T11:12:06;6.68;;;4.20;;
32216;SDS011;18709;51.140;4.088;2022-08-19T11:14:33;6.43;;;4.75;;
32216;SDS011;18709;51.140;4.088;2022-08-19T11:17:00;8.23;;;4.47;;
32216;SDS011;18709;51.140;4.088;2022-08-19T11:19:26;8.48;;;4.25;;
32216;SDS011;18709;51.140;4.088;2022-08-19T11:21:53;4.85;;;3.90;;
32216;SDS011;18709;51.140;4.088;2022-08-19T11:24:20;7.68;;;4.03;;
32216;SDS011;18709;51.140;4.088;2022-08-19T11:26:49;5.95;;;3.65;;
32216;SDS011;18709;51.140;4.088;2022-08-19T11:29:17;7.75;;;3.85;;
32216;SDS011;18709;51.140;4.088;2022-08-19T11:31:46;7.28;;;3.95;;
32216;SDS011;18709;51.140;4.088;2022-08-19T11:34:18;7.95;;;3.55;;
32216;SDS011;18709;51.140;4.088;2022-08-19T11:36:46;4.82;;;3.30;;
32216;SDS011;18709;51.140;4.088;2022-08-19T11:39:15;6.72;;;2.70;;
32216;SDS011;18709;51.140;4.088;2022-08-19T11:41:42;4.57;;;2.60;;
32216;SDS011;18709;51.140;4.088;2022-08-19T11:44:08;6.78;;;3.00;;
32216;SDS011;18709;51.140;4.088;2022-08-19T11:46:35;3.63;;;2.38;;
32216;SDS011;18709;51.140;4.088;2022-08-19T11:49:03;4.18;;;2.75;;
32216;SDS011;18709;51.140;4.088;2022-08-19T11:51:32;7.27;;;2.40;;
32216;SDS011;18709;51.140;4.088;2022-08-19T11:53:59;7.43;;;3.30;;
32216;SDS011;18709;51.140;4.088;2022-08-19T11:56:26;5.20;;;3.63;;
32216;SDS011;18709;51.140;4.088;2022-08-19T11:58:52;6.85;;;4.30;;
32216;SDS011;18709;51.140;4.088;2022-08-19T12:01:20;7.75;;;3.75;;
32216;SDS011;18709;51.140;4.088;2022-08-19T12:03:49;5.10;;;3.17;;
32216;SDS011;18709;51.140;4.088;2022-08-19T12:06:18;5.50;;;3.03;;
32216;SDS011;18709;51.140;4.088;2022-08-19T12:08:48;5.85;;;2.92;;
32216;SDS011;18709;51.140;4.088;2022-08-19T12:11:14;10.38;;;3.75;;
32216;SDS011;18709;51.140;4.088;2022-08-19T12:13:40;4.45;;;2.60;;
32216;SDS011;18709;51.140;4.088;2022-08-19T12:16:11;4.75;;;2.53;;
32216;SDS011;18709;51.140;4.088;2022-08-19T12:18:40;3.58;;;2.22;;
32216;SDS011;18709;51.140;4.088;2022-08-19T12:21:10;3.33;;;2.05;;
32216;SDS011;18709;51.140;4.088;2022-08-19T12:23:38;4.38;;;1.98;;
32216;SDS011;18709;51.140;4.088;2022-08-19T12:26:05;4.55;;;2.33;;
32216;SDS011;18709;51.140;4.088;2022-08-19T12:28:32;6.55;;;2.67;;
32216;SDS011;18709;51.140;4.088;2022-08-19T12:30:57;5.53;;;2.40;;
32216;SDS011;18709;51.140;4.088;2022-08-19T12:33:23;3.63;;;1.88;;
32216;SDS011;18709;51.140;4.088;2022-08-19T12:35:52;3.92;;;1.45;;
32216;SDS011;18709;51.140;4.088;2022-08-19T12:38:18;5.68;;;2.17;;
32216;SDS011;18709;51.140;4.088;2022-08-19T12:40:47;2.70;;;1.80;;
32216;SDS011;18709;51.140;4.088;2022-08-19T12:43:14;11.43;;;2.20;;
32216;SDS011;18709;51.140;4.088;2022-08-19T12:45:44;4.88;;;1.25;;
32216;SDS011;18709;51.140;4.088;2022-08-19T12:48:10;2.92;;;1.58;;
32216;SDS011;18709;51.140;4.088;2022-08-19T12:50:38;5.25;;;1.58;;
32216;SDS011;18709;51.140;4.088;2022-08-19T12:53:05;4.53;;;1.63;;
32216;SDS011;18709;51.140;4.088;2022-08-19T12:55:30;3.72;;;1.40;;
32216;SDS011;18709;51.140;4.088;2022-08-19T12:57:56;3.17;;;1.30;;
32216;SDS011;18709;51.140;4.088;2022-08-19T13:00:22;2.00;;;1.13;;
32216;SDS011;18709;51.140;4.088;2022-08-19T13:02:49;4.05;;;1.20;;
32216;SDS011;18709;51.140;4.088;2022-08-19T13:05:17;4.13;;;1.42;;
32216;SDS011;18709;51.140;4.088;2022-08-19T13:07:51;2.95;;;1.40;;
32216;SDS011;18709;51.140;4.088;2022-08-19T13:10:23;1.95;;;1.13;;
32216;SDS011;18709;51.140;4.088;2022-08-19T13:12:52;2.35;;;1.25;;
32216;SDS011;18709;51.140;4.088;2022-08-19T13:15:19;1.75;;;1.33;;
32216;SDS011;18709;51.140;4.088;2022-08-19T13:17:49;4.60;;;1.10;;
32216;SDS011;18709;51.140;4.088;2022-08-19T13:20:18;2.42;;;0.98;;
32216;SDS011;18709;51.140;4.088;2022-08-19T13:22:46;2.92;;;1.20;;
32216;SDS011;18709;51.140;4.088;2022-08-19T13:25:13;2.58;;;1.40;;
32216;SDS011;18709;51.140;4.088;2022-08-19T13:27:42;3.17;;;1.40;;
32216;SDS011;18709;51.140;4.088;2022-08-19T13:30:10;2.88;;;1.27;;
32216;SDS011;18709;51.140;4.088;2022-08-19T13:32:56;1.90;;;1.40;;
32216;SDS011;18709;51.140;4.088;2022-08-19T13:38:19;3.10;;;1.90;;
32216;SDS011;18709;51.140;4.088;2022-08-19T13:43:13;2.55;;;1.67;;
32216;SDS011;18709;51.140;4.088;2022-08-19T13:45:40;4.50;;;1.55;;
32216;SDS011;18709;51.140;4.088;2022-08-19T13:48:10;3.72;;;1.25;;
32216;SDS011;18709;51.140;4.088;2022-08-19T13:50:42;1.92;;;1.48;;
32216;SDS011;18709;51.140;4.088;2022-08-19T13:53:09;3.80;;;1.30;;
32216;SDS011;18709;51.140;4.088;2022-08-19T13:55:42;2.20;;;1.48;;
32216;SDS011;18709;51.140;4.088;2022-08-19T13:58:09;3.15;;;1.52;;
32216;SDS011;18709;51.140;4.088;2022-08-19T14:00:38;2.05;;;1.42;;
32216;SDS011;18709;51.140;4.088;2022-08-19T14:03:07;1.77;;;0.90;;
32216;SDS011;18709;51.140;4.088;2022-08-19T14:05:33;3.20;;;0.95;;
32216;SDS011;18709;51.140;4.088;2022-08-19T14:08:01;3.35;;;1.23;;
32216;SDS011;18709;51.140;4.088;2022-08-19T14:10:27;1.98;;;1.60;;
32216;SDS011;18709;51.140;4.088;2022-08-19T14:12:54;9.80;;;2.03;;
32216;SDS011;18709;51.140;4.088;2022-08-19T14:15:20;8.75;;;2.22;;
32216;SDS011;18709;51.140;4.088;2022-08-19T14:17:46;16.27;;;2.10;;
32216;SDS011;18709;51.140;4.088;2022-08-19T14:20:15;6.85;;;2.05;;
32216;SDS011;18709;51.140;4.088;2022-08-19T14:22:46;5.68;;;1.33;;
32216;SDS011;18709;51.140;4.088;2022-08-19T14:25:15;4.00;;;1.38;;
32216;SDS011;18709;51.140;4.088;2022-08-19T14:27:43;3.15;;;1.40;;
32216;SDS011;18709;51.140;4.088;2022-08-19T14:30:10;6.95;;;1.55;;
32216;SDS011;18709;51.140;4.088;2022-08-19T14:32:38;9.25;;;1.35;;
32216;SDS011;18709;51.140;4.088;2022-08-19T14:35:05;2.60;;;1.38;;
32216;SDS011;18709;51.140;4.088;2022-08-19T14:37:33;3.53;;;1.65;;
32216;SDS011;18709;51.140;4.088;2022-08-19T14:39:59;8.98;;;1.55;;
32216;SDS011;18709;51.140;4.088;2022-08-19T14:42:25;2.20;;;1.02;;
32216;SDS011;18709;51.140;4.088;2022-08-19T14:44:50;4.75;;;1.30;;
32216;SDS011;18709;51.140;4.088;2022-08-19T14:47:16;7.15;;;1.20;;
32216;SDS011;18709;51.140;4.088;2022-08-19T14:49:42;5.50;;;1.40;;
32216;SDS011;18709;51.140;4.088;2022-08-19T14:52:08;4.65;;;0.98;;
32216;SDS011;18709;51.140;4.088;2022-08-19T14:54:34;3.90;;;0.90;;
32216;SDS011;18709;51.140;4.088;2022-08-19T14:57:00;3.42;;;1.13;;
32216;SDS011;18709;51.140;4.088;2022-08-19T14:59:26;4.47;;;1.33;;
32216;SDS011;18709;51.140;4.088;2022-08-19T15:01:51;3.47;;;1.00;;